createdAt,value
2022-10-31T00:01:12.583Z,97.15
2022-10-31T00:03:39.005Z,97.71
2022-10-31T00:06:05.521Z,98.21
2022-10-31T00:08:31.952Z,98.19
2022-10-31T00:10:58.442Z,97.91
2022-10-31T00:13:24.883Z,97.68
2022-10-31T00:15:51.370Z,97.43
2022-10-31T00:18:17.805Z,97.51
2022-10-31T00:20:44.271Z,97.90
2022-10-31T00:23:11.941Z,98.14
2022-10-31T00:25:40.565Z,97.95
2022-10-31T00:28:08.568Z,97.43
2022-10-31T00:30:35.132Z,97.48
2022-10-31T00:33:03.914Z,97.55
2022-10-31T00:35:30.393Z,97.83
2022-10-31T00:37:56.864Z,98.25
2022-10-31T00:40:23.327Z,97.68
2022-10-31T00:42:49.805Z,97.22
2022-10-31T00:45:16.500Z,97.56
2022-10-31T00:47:42.959Z,97.25
2022-10-31T00:50:09.755Z,98.10
2022-10-31T00:52:36.252Z,97.56
2022-10-31T00:55:03.203Z,97.52
2022-10-31T00:57:29.619Z,97.84
2022-10-31T00:59:56.056Z,97.76
2022-10-31T01:02:22.680Z,97.73
2022-10-31T01:04:49.295Z,97.97
2022-10-31T01:07:15.756Z,98.29
2022-10-31T01:09:42.241Z,97.14
2022-10-31T01:12:09.283Z,97.37
2022-10-31T01:14:35.779Z,97.59
2022-10-31T01:17:02.305Z,97.80
2022-10-31T01:19:30.300Z,97.80
2022-10-31T01:21:56.760Z,97.27
2022-10-31T01:24:23.492Z,97.23
2022-10-31T01:26:50.031Z,97.15
2022-10-31T01:29:16.590Z,97.68
2022-10-31T01:31:43.093Z,97.88
2022-10-31T01:34:14.228Z,97.24
2022-10-31T01:36:41.394Z,97.33
2022-10-31T01:39:14.125Z,97.34
2022-10-31T01:41:44.417Z,97.99
2022-10-31T01:44:16.996Z,97.13
2022-10-31T01:46:49.046Z,97.81
2022-10-31T01:49:29.180Z,97.60
2022-10-31T01:51:59.757Z,98.12
2022-10-31T01:54:32.710Z,98.29
2022-10-31T01:57:01.478Z,97.54
2022-10-31T01:59:31.836Z,97.76
2022-10-31T02:01:58.517Z,97.59
2022-10-31T02:04:26.242Z,97.25
2022-10-31T02:07:08.431Z,97.19
2022-10-31T02:09:37.025Z,97.25
2022-10-31T02:12:04.556Z,96.87
2022-10-31T02:14:32.453Z,96.86
2022-10-31T02:16:59.092Z,96.82
2022-10-31T02:19:37.109Z,96.96
2022-10-31T02:22:14.421Z,97.20
2022-10-31T02:24:58.991Z,97.28
2022-10-31T02:27:28.418Z,98.02
2022-10-31T02:30:09.193Z,97.74
2022-10-31T02:32:51.443Z,97.37
2022-10-31T02:35:45.284Z,97.28
2022-10-31T02:38:30.022Z,97.83
2022-10-31T02:41:10.717Z,97.50
2022-10-31T02:43:44.792Z,97.29
2022-10-31T02:46:20.112Z,97.43
2022-10-31T02:48:48.854Z,97.61
2022-10-31T02:51:17.422Z,97.59
2022-10-31T02:53:43.836Z,97.40
2022-10-31T02:56:14.157Z,97.79
2022-10-31T02:58:45.602Z,97.66
2022-10-31T03:01:42.866Z,97.81
2022-10-31T03:04:18.876Z,97.51
2022-10-31T03:07:09.079Z,97.41
2022-10-31T03:09:54.222Z,97.87
2022-10-31T03:12:28.886Z,97.72
2022-10-31T03:15:34.627Z,97.82
2022-10-31T03:18:12.980Z,97.88
2022-10-31T03:20:43.076Z,97.70
2022-10-31T03:23:14.738Z,97.07
2022-10-31T03:25:42.882Z,97.70
2022-10-31T03:28:11.278Z,97.56
2022-10-31T03:30:41.173Z,97.59
2022-10-31T03:33:12.619Z,97.54
2022-10-31T03:35:42.837Z,97.51
2022-10-31T03:38:10.755Z,97.85
2022-10-31T03:40:39.191Z,97.63
2022-10-31T03:43:11.371Z,97.91
2022-10-31T03:45:43.027Z,97.75
2022-10-31T03:48:09.878Z,98.14
2022-10-31T03:50:53.660Z,98.02
2022-10-31T03:53:48.467Z,98.29
2022-10-31T03:56:27.227Z,98.50
2022-10-31T03:59:08.641Z,98.22
2022-10-31T04:01:40.769Z,98.36
2022-10-31T04:04:08.330Z,98.32
2022-10-31T04:06:38.380Z,98.14
2022-10-31T04:09:07.583Z,98.07
2022-10-31T04:11:47.272Z,98.07
2022-10-31T04:14:13.766Z,97.88
2022-10-31T04:16:45.332Z,97.67
2022-10-31T04:19:13.146Z,97.63
2022-10-31T04:21:39.726Z,97.37
2022-10-31T04:24:06.516Z,97.66
2022-10-31T04:26:32.938Z,97.70
2022-10-31T04:28:59.337Z,97.72
2022-10-31T04:31:25.831Z,97.98
2022-10-31T04:33:52.279Z,97.78
2022-10-31T04:36:18.846Z,97.74
2022-10-31T04:38:45.331Z,97.95
2022-10-31T04:41:11.789Z,97.62
2022-10-31T04:43:38.257Z,97.58
2022-10-31T04:46:05.196Z,97.73
2022-10-31T04:48:31.681Z,97.82
2022-10-31T04:51:02.088Z,97.87
2022-10-31T04:53:29.260Z,97.94
2022-10-31T04:55:55.951Z,97.70
2022-10-31T04:58:22.403Z,97.71
2022-10-31T05:00:52.852Z,97.88
2022-10-31T05:03:19.328Z,97.24
2022-10-31T05:05:45.812Z,97.52
2022-10-31T05:08:12.274Z,97.90
2022-10-31T05:10:38.856Z,97.94
2022-10-31T05:13:06.079Z,98.12
2022-10-31T05:15:33.328Z,98.17
2022-10-31T05:18:00.760Z,98.14
2022-10-31T05:20:29.392Z,98.27
2022-10-31T05:22:57.547Z,98.10
2022-10-31T05:25:27.079Z,98.15
2022-10-31T05:27:55.347Z,98.33
2022-10-31T05:30:28.451Z,98.41
2022-10-31T05:32:55.396Z,98.11
2022-10-31T05:35:25.417Z,97.78
2022-10-31T05:37:52.172Z,98.12
2022-10-31T05:40:20.115Z,98.06
2022-10-31T05:42:47.258Z,98.53
2022-10-31T05:45:16.576Z,98.26
2022-10-31T05:47:43.540Z,98.33
2022-10-31T05:50:10.833Z,98.63
2022-10-31T05:52:37.543Z,98.50
2022-10-31T05:55:04.225Z,98.47
2022-10-31T05:57:33.345Z,98.22
2022-10-31T05:59:59.928Z,98.28
2022-10-31T06:02:27.721Z,98.42
2022-10-31T06:04:54.715Z,98.33
2022-10-31T06:07:21.174Z,98.39
2022-10-31T06:09:47.659Z,99.00
2022-10-31T06:12:14.078Z,98.41
2022-10-31T06:14:40.569Z,98.71
2022-10-31T06:17:07.533Z,98.79
2022-10-31T06:19:33.968Z,98.96
2022-10-31T06:22:00.372Z,99.12
2022-10-31T06:24:26.791Z,99.54
2022-10-31T06:26:53.339Z,99.42
2022-10-31T06:29:19.887Z,99.17
2022-10-31T06:31:46.309Z,99.03
2022-10-31T06:34:12.746Z,99.32
2022-10-31T06:36:39.182Z,98.96
2022-10-31T06:39:05.637Z,99.46
2022-10-31T06:41:32.056Z,99.57
2022-10-31T06:43:58.466Z,99.65
2022-10-31T06:46:24.910Z,99.34
2022-10-31T06:48:51.315Z,100.00
2022-10-31T06:51:17.793Z,100.00
2022-10-31T06:53:44.247Z,100.00
2022-10-31T06:56:10.732Z,100.00
2022-10-31T06:58:37.154Z,100.00
2022-10-31T07:01:03.778Z,100.00
2022-10-31T07:03:30.342Z,100.00
2022-10-31T07:05:57.801Z,100.00
2022-10-31T07:08:24.972Z,100.00
2022-10-31T07:10:54.117Z,100.00
2022-10-31T07:13:25.681Z,100.00
2022-10-31T07:15:54.582Z,100.00
2022-10-31T07:18:22.292Z,100.00
2022-10-31T07:20:49.251Z,100.00
2022-10-31T07:23:15.780Z,100.00
2022-10-31T07:25:42.683Z,100.00
2022-10-31T07:28:09.878Z,100.00
2022-10-31T07:30:36.346Z,100.00
2022-10-31T07:33:03.278Z,100.00
2022-10-31T07:35:30.713Z,100.00
2022-10-31T07:37:58.260Z,100.00
2022-10-31T07:40:25.651Z,100.00
2022-10-31T07:42:53.918Z,100.00
2022-10-31T07:45:21.682Z,100.00
2022-10-31T07:47:50.487Z,100.00
2022-10-31T07:50:19.943Z,100.00
2022-10-31T07:52:46.463Z,99.76
2022-10-31T07:55:13.276Z,100.00
2022-10-31T07:57:39.743Z,100.00
2022-10-31T08:00:11.541Z,100.00
2022-10-31T08:02:37.971Z,100.00
2022-10-31T08:05:04.620Z,100.00
2022-10-31T08:10:08.718Z,100.00
2022-10-31T08:12:35.159Z,100.00
2022-10-31T08:15:02.946Z,100.00
2022-10-31T08:17:30.559Z,100.00
2022-10-31T08:19:57.026Z,100.00
2022-10-31T08:22:23.532Z,100.00
2022-10-31T08:24:50.007Z,100.00
2022-10-31T08:27:16.424Z,100.00
2022-10-31T08:29:42.884Z,100.00
2022-10-31T08:32:09.343Z,100.00
2022-10-31T08:34:35.813Z,100.00
2022-10-31T08:37:02.278Z,100.00
2022-10-31T08:39:28.705Z,100.00
2022-10-31T08:41:55.120Z,100.00
2022-10-31T08:44:22.116Z,100.00
2022-10-31T08:46:48.550Z,100.00
2022-10-31T08:49:15.013Z,100.00
2022-10-31T08:51:41.454Z,100.00
2022-10-31T08:54:07.909Z,100.00
2022-10-31T08:56:34.348Z,100.00
2022-10-31T08:59:00.925Z,100.00
2022-10-31T09:01:27.447Z,100.00
2022-10-31T09:03:53.977Z,100.00
2022-10-31T09:06:20.544Z,100.00
2022-10-31T09:08:47.005Z,100.00
2022-10-31T09:11:13.459Z,100.00
2022-10-31T09:13:41.495Z,100.00
2022-10-31T09:16:08.423Z,100.00
2022-10-31T09:18:35.043Z,100.00
2022-10-31T09:21:01.870Z,100.00
2022-10-31T09:23:28.778Z,100.00
2022-10-31T09:25:56.089Z,100.00
2022-10-31T09:28:24.532Z,100.00
2022-10-31T09:30:53.043Z,100.00
2022-10-31T09:33:20.241Z,100.00
2022-10-31T09:35:46.714Z,100.00
2022-10-31T09:38:16.031Z,100.00
2022-10-31T09:40:45.286Z,100.00
2022-10-31T09:43:16.388Z,99.92
2022-10-31T09:45:48.197Z,99.88
2022-10-31T09:48:44.026Z,99.50
2022-10-31T09:51:26.983Z,99.23
2022-10-31T09:54:14.823Z,99.44
2022-10-31T09:56:41.476Z,98.64
2022-10-31T09:59:22.127Z,99.63
2022-10-31T10:01:52.349Z,99.54
2022-10-31T10:04:41.590Z,99.21
2022-10-31T10:07:36.465Z,98.23
2022-10-31T10:10:29.804Z,98.21
2022-10-31T10:13:09.136Z,97.80
2022-10-31T10:16:17.507Z,97.46
2022-10-31T10:18:55.828Z,96.82
2022-10-31T10:21:25.053Z,96.55
2022-10-31T10:24:03.867Z,96.68
2022-10-31T10:26:38.279Z,95.90
2022-10-31T10:29:22.411Z,95.41
2022-10-31T10:31:50.701Z,95.43
2022-10-31T10:34:31.818Z,94.73
2022-10-31T10:37:01.275Z,94.95
2022-10-31T10:39:38.063Z,94.31
2022-10-31T10:42:31.621Z,94.82
2022-10-31T10:45:17.569Z,94.04
2022-10-31T10:47:46.078Z,93.51
2022-10-31T10:50:21.378Z,93.85
2022-10-31T10:53:32.857Z,92.49
2022-10-31T10:56:23.911Z,92.68
2022-10-31T10:58:50.497Z,92.35
2022-10-31T11:01:17.028Z,92.77
2022-10-31T11:03:43.519Z,91.73
2022-10-31T11:06:39.077Z,91.39
2022-10-31T11:09:11.893Z,90.46
2022-10-31T11:11:39.760Z,90.17
2022-10-31T11:14:14.379Z,90.21
2022-10-31T11:16:46.722Z,90.52
2022-10-31T11:19:13.123Z,89.65
2022-10-31T11:21:39.618Z,89.56
2022-10-31T11:24:12.280Z,88.33
2022-10-31T11:26:41.170Z,88.02
2022-10-31T11:29:25.998Z,87.39
2022-10-31T11:31:56.452Z,87.31
2022-10-31T11:34:36.104Z,87.37
2022-10-31T11:37:17.136Z,87.78
2022-10-31T11:39:54.082Z,87.25
2022-10-31T11:42:23.519Z,87.38
2022-10-31T11:44:51.475Z,87.56
2022-10-31T11:47:22.923Z,87.36
2022-10-31T11:49:53.058Z,86.56
2022-10-31T11:52:29.434Z,86.44
2022-10-31T11:55:01.869Z,86.08
2022-10-31T11:57:43.457Z,86.98
2022-10-31T12:00:31.168Z,87.10
2022-10-31T12:03:34.767Z,87.51
2022-10-31T12:06:16.408Z,86.78
2022-10-31T12:08:43.211Z,87.26
2022-10-31T12:11:19.172Z,86.95
2022-10-31T12:14:13.329Z,88.35
2022-10-31T12:17:02.541Z,88.18
2022-10-31T12:19:44.083Z,88.97
2022-10-31T12:22:19.041Z,89.39
2022-10-31T12:24:49.732Z,89.46
2022-10-31T12:27:38.012Z,89.33
2022-10-31T12:30:25.900Z,88.93
2022-10-31T12:33:17.488Z,88.83
2022-10-31T12:36:00.970Z,87.08
2022-10-31T12:39:05.074Z,86.86
2022-10-31T12:41:57.525Z,86.66
2022-10-31T12:44:45.447Z,86.94
2022-10-31T12:47:45.774Z,87.35
2022-10-31T12:50:36.102Z,86.97
2022-10-31T12:53:09.985Z,86.57
2022-10-31T12:55:48.594Z,86.71
2022-10-31T12:58:40.031Z,86.71
2022-10-31T13:01:15.845Z,85.33
2022-10-31T13:03:54.577Z,85.85
2022-10-31T13:06:25.272Z,85.50
2022-10-31T13:09:16.425Z,85.51
2022-10-31T13:11:50.976Z,85.59
2022-10-31T13:14:45.284Z,86.39
2022-10-31T13:17:23.098Z,86.55
2022-10-31T13:19:51.263Z,86.02
2022-10-31T13:22:22.635Z,86.66
2022-10-31T13:25:10.057Z,86.05
2022-10-31T13:27:58.016Z,86.87
2022-10-31T13:30:28.102Z,87.47
2022-10-31T13:33:00.793Z,87.67
2022-10-31T13:35:30.277Z,87.29
2022-10-31T13:38:10.329Z,86.98
2022-10-31T13:40:54.861Z,86.96
2022-10-31T13:43:29.655Z,87.31
2022-10-31T13:45:57.046Z,86.90
2022-10-31T13:48:26.311Z,86.92
2022-10-31T13:51:03.031Z,86.20
2022-10-31T13:53:38.152Z,86.07
2022-10-31T13:56:35.343Z,86.28
2022-10-31T13:59:10.753Z,85.71
2022-10-31T14:01:46.765Z,86.22
2022-10-31T14:04:45.375Z,86.01
2022-10-31T14:07:14.997Z,85.85
2022-10-31T14:10:02.839Z,85.20
2022-10-31T14:12:44.700Z,85.74
2022-10-31T14:15:17.233Z,85.76
2022-10-31T14:17:53.347Z,85.46
2022-10-31T14:20:20.544Z,86.03
2022-10-31T14:22:47.387Z,86.17
2022-10-31T14:25:33.417Z,86.25
2022-10-31T14:28:03.620Z,86.69
2022-10-31T14:30:31.804Z,87.01
2022-10-31T14:33:11.577Z,87.29
2022-10-31T14:35:56.294Z,87.13
2022-10-31T14:38:22.796Z,87.05
2022-10-31T14:41:15.093Z,87.30
2022-10-31T14:43:56.819Z,87.19
2022-10-31T14:46:35.392Z,87.68
2022-10-31T14:49:10.848Z,87.42
2022-10-31T14:51:45.243Z,87.59
2022-10-31T14:54:19.077Z,87.79
2022-10-31T14:56:56.357Z,88.42
2022-10-31T14:59:28.877Z,88.40
2022-10-31T15:02:29.078Z,88.30
2022-10-31T15:04:57.400Z,88.43
2022-10-31T15:07:26.632Z,88.98
2022-10-31T15:10:01.919Z,88.88
2022-10-31T15:12:34.857Z,89.18
2022-10-31T15:15:15.976Z,88.99
2022-10-31T15:17:53.812Z,89.24
2022-10-31T15:20:29.930Z,89.22
2022-10-31T15:22:58.064Z,89.36
2022-10-31T15:25:29.115Z,89.62
2022-10-31T15:27:55.555Z,89.67
2022-10-31T15:30:23.775Z,90.16
2022-10-31T15:32:58.306Z,90.41
2022-10-31T15:35:31.898Z,90.11
2022-10-31T15:38:00.364Z,90.51
2022-10-31T15:40:28.937Z,90.50
2022-10-31T15:43:03.004Z,90.52
2022-10-31T15:45:31.277Z,90.78
2022-10-31T15:48:04.120Z,90.69
2022-10-31T15:50:33.988Z,90.58
2022-10-31T15:53:01.743Z,90.34
2022-10-31T15:55:33.339Z,90.42
2022-10-31T15:58:05.209Z,90.25
2022-10-31T16:00:34.274Z,90.06
2022-10-31T16:03:22.639Z,90.23
2022-10-31T16:05:54.361Z,90.78
2022-10-31T16:08:46.666Z,90.39
2022-10-31T16:11:13.656Z,90.62
2022-10-31T16:13:56.808Z,90.58
2022-10-31T16:16:39.435Z,91.00
2022-10-31T16:19:17.070Z,90.71
2022-10-31T16:21:43.635Z,90.69
2022-10-31T16:24:21.398Z,91.39
2022-10-31T16:26:49.758Z,91.46
2022-10-31T16:29:34.482Z,91.39
2022-10-31T16:32:01.176Z,91.56
2022-10-31T16:34:27.674Z,92.00
2022-10-31T16:36:54.388Z,92.27
2022-10-31T16:39:21.301Z,92.28
2022-10-31T16:41:51.700Z,91.97
2022-10-31T16:44:26.628Z,91.98
2022-10-31T16:47:14.519Z,92.99
2022-10-31T16:49:41.343Z,92.34
2022-10-31T16:52:07.768Z,92.81
2022-10-31T16:54:34.341Z,92.51
2022-10-31T16:57:01.939Z,92.70
2022-10-31T16:59:28.664Z,92.58
2022-10-31T17:01:55.899Z,93.56
2022-10-31T17:04:22.988Z,93.76
2022-10-31T17:06:49.476Z,94.02
2022-10-31T17:09:15.980Z,93.92
2022-10-31T17:11:49.560Z,94.11
2022-10-31T17:14:17.432Z,94.52
2022-10-31T17:16:43.866Z,93.83
2022-10-31T17:19:13.667Z,94.31
2022-10-31T17:21:40.787Z,94.35
2022-10-31T17:24:10.356Z,94.00
2022-10-31T17:26:36.782Z,93.71
2022-10-31T17:29:03.643Z,94.74
2022-10-31T17:31:32.137Z,94.23
2022-10-31T17:34:02.048Z,94.27
2022-10-31T17:36:28.865Z,94.24
2022-10-31T17:38:55.661Z,94.21
2022-10-31T17:41:22.095Z,94.73
2022-10-31T17:43:48.547Z,95.42
2022-10-31T17:46:15.084Z,95.30
2022-10-31T17:48:41.778Z,95.41
2022-10-31T17:51:08.364Z,94.96
2022-10-31T17:53:35.161Z,95.49
2022-10-31T17:56:07.302Z,95.75
2022-10-31T17:58:35.693Z,96.09
2022-10-31T18:01:08.425Z,96.03
2022-10-31T18:03:35.259Z,95.61
2022-10-31T18:06:01.744Z,95.75
2022-10-31T18:08:30.307Z,96.26
2022-10-31T18:10:59.792Z,96.26
2022-10-31T18:13:27.729Z,96.45
2022-10-31T18:15:54.976Z,96.81
2022-10-31T18:18:22.035Z,97.00
2022-10-31T18:20:48.536Z,97.27
2022-10-31T18:23:15.093Z,96.87
2022-10-31T18:25:43.430Z,97.79
2022-10-31T18:28:09.948Z,97.77
2022-10-31T18:30:40.999Z,97.36
2022-10-31T18:33:08.554Z,97.46
2022-10-31T18:35:37.895Z,97.60
2022-10-31T18:38:06.141Z,97.91
2022-10-31T18:40:34.737Z,97.67
2022-10-31T18:43:01.441Z,97.99
2022-10-31T18:45:41.745Z,97.66
2022-10-31T18:48:14.350Z,97.76
2022-10-31T18:50:41.251Z,97.73
2022-10-31T18:53:07.915Z,98.23
2022-10-31T18:55:34.792Z,97.92
2022-10-31T18:58:01.320Z,98.39
2022-10-31T19:00:27.825Z,98.55
2022-10-31T19:02:56.492Z,98.38
2022-10-31T19:05:23.396Z,98.84
2022-10-31T19:07:49.844Z,98.97
2022-10-31T19:10:16.325Z,99.06
2022-10-31T19:12:42.807Z,99.29
2022-10-31T19:15:09.613Z,98.51
2022-10-31T19:17:36.023Z,99.31
2022-10-31T19:20:02.634Z,99.19
2022-10-31T19:22:31.285Z,98.81
2022-10-31T19:24:57.762Z,98.82
2022-10-31T19:27:26.422Z,97.91
2022-10-31T19:29:52.904Z,97.65
2022-10-31T19:32:19.398Z,98.10
2022-10-31T19:34:45.901Z,97.23
2022-10-31T19:37:12.370Z,97.68
2022-10-31T19:39:43.921Z,97.32
2022-10-31T19:42:10.845Z,97.11
2022-10-31T19:44:37.288Z,96.94
2022-10-31T19:47:04.008Z,96.94
2022-10-31T19:49:30.454Z,96.92
2022-10-31T19:51:57.072Z,96.55
2022-10-31T19:54:23.790Z,96.35
2022-10-31T19:56:50.255Z,95.88
2022-10-31T19:59:16.808Z,96.57
2022-10-31T20:01:43.523Z,95.80
2022-10-31T20:04:10.649Z,95.94
2022-10-31T20:06:39.693Z,96.22
2022-10-31T20:09:09.632Z,95.65
2022-10-31T20:11:37.825Z,95.64
2022-10-31T20:14:05.162Z,94.90
2022-10-31T20:16:32.558Z,95.41
2022-10-31T20:18:59.722Z,95.10
2022-10-31T20:21:29.319Z,95.34
2022-10-31T20:23:57.296Z,95.40
2022-10-31T20:26:23.872Z,95.29
2022-10-31T20:28:50.447Z,95.83
2022-10-31T20:31:20.096Z,95.18
2022-10-31T20:33:48.168Z,95.68
2022-10-31T20:36:15.435Z,95.71
2022-10-31T20:38:42.487Z,95.48
2022-10-31T20:41:10.845Z,95.86
2022-10-31T20:43:38.109Z,95.88
2022-10-31T20:46:11.292Z,95.67
2022-10-31T20:48:38.149Z,95.78
2022-10-31T20:51:10.005Z,95.59
2022-10-31T20:53:36.578Z,95.64
2022-10-31T20:56:08.469Z,95.31
2022-10-31T20:58:36.606Z,95.40
2022-10-31T21:01:04.942Z,95.28
2022-10-31T21:03:31.670Z,95.00
2022-10-31T21:06:00.102Z,95.59
2022-10-31T21:08:28.935Z,95.36
2022-10-31T21:10:56.249Z,95.57
2022-10-31T21:13:23.654Z,95.51
2022-10-31T21:16:00.691Z,95.23
2022-10-31T21:18:27.192Z,95.08
2022-10-31T21:20:53.652Z,95.34
2022-10-31T21:23:20.121Z,94.98
2022-10-31T21:25:46.580Z,94.63
2022-10-31T21:28:13.586Z,95.29
2022-10-31T21:30:49.124Z,94.99
2022-10-31T21:33:15.639Z,94.30
2022-10-31T21:35:50.723Z,94.59
2022-10-31T21:38:17.804Z,94.29
2022-10-31T21:40:44.741Z,94.02
2022-10-31T21:43:11.207Z,94.18
2022-10-31T21:45:37.703Z,93.79
2022-10-31T21:48:04.420Z,93.47
2022-10-31T21:50:30.851Z,93.17
2022-10-31T21:53:17.508Z,93.34
2022-10-31T21:55:43.988Z,93.12
2022-10-31T21:58:10.475Z,93.24
2022-10-31T22:00:36.938Z,93.19
2022-10-31T22:03:03.416Z,92.70
2022-10-31T22:05:29.837Z,93.20
2022-10-31T22:07:56.515Z,92.14
2022-10-31T22:10:22.932Z,92.74
2022-10-31T22:12:49.401Z,92.24
2022-10-31T22:15:16.576Z,92.48
2022-10-31T22:17:43.016Z,92.36
2022-10-31T22:20:09.711Z,92.46
2022-10-31T22:22:36.118Z,92.14
2022-10-31T22:25:02.649Z,91.37
2022-10-31T22:27:29.063Z,91.90
2022-10-31T22:29:56.735Z,91.84
2022-10-31T22:32:23.443Z,91.59
2022-10-31T22:34:49.868Z,91.50
2022-10-31T22:37:19.732Z,90.97
2022-10-31T22:39:46.431Z,90.63
2022-10-31T22:42:12.911Z,89.88
2022-10-31T22:44:39.356Z,89.14
2022-10-31T22:47:06.208Z,89.68
2022-10-31T22:49:32.768Z,89.36
2022-10-31T22:52:03.002Z,88.74
2022-10-31T22:54:29.519Z,88.29
2022-10-31T22:56:55.920Z,87.51
2022-10-31T22:59:22.382Z,87.08
2022-10-31T23:01:48.998Z,86.07
2022-10-31T23:04:16.878Z,86.57
2022-10-31T23:06:43.888Z,85.61
2022-10-31T23:09:14.579Z,86.25
2022-10-31T23:11:41.550Z,86.30
2022-10-31T23:14:14.011Z,86.95
2022-10-31T23:16:45.603Z,87.18
2022-10-31T23:19:22.063Z,87.76
2022-10-31T23:21:57.441Z,88.33
2022-10-31T23:24:44.664Z,88.28
2022-10-31T23:27:12.983Z,88.33
2022-10-31T23:29:49.583Z,89.11
2022-10-31T23:32:17.845Z,88.82
2022-10-31T23:34:45.255Z,89.51
2022-10-31T23:37:12.139Z,88.66
2022-10-31T23:39:38.673Z,89.27
2022-10-31T23:42:05.736Z,89.79
2022-10-31T23:44:32.183Z,90.43
2022-10-31T23:46:58.888Z,90.38
2022-10-31T23:49:25.397Z,91.01
2022-10-31T23:51:52.046Z,90.50
2022-10-31T23:54:18.502Z,90.78
2022-10-31T23:56:44.961Z,91.43
2022-10-31T23:59:11.397Z,91.35
